createdAt,value
2023-05-08T00:00:14.734Z,101574.83
2023-05-08T00:03:03.848Z,101576.38
2023-05-08T00:05:32.559Z,101576.02
2023-05-08T00:08:01.754Z,101580.13
2023-05-08T00:10:31.039Z,101581.42
2023-05-08T00:12:59.730Z,101584.48
2023-05-08T00:15:28.405Z,101584.77
2023-05-08T00:17:57.135Z,101583.52
2023-05-08T00:20:25.866Z,101585.70
2023-05-08T00:22:54.644Z,101583.47
2023-05-08T00:25:23.406Z,101585.80
2023-05-08T00:27:52.290Z,101587.64
2023-05-08T00:30:21.462Z,101587.81
2023-05-08T00:32:50.214Z,101589.83
2023-05-08T00:35:19.623Z,101592.69
2023-05-08T00:37:48.430Z,101597.11
2023-05-08T00:40:17.224Z,101594.77
2023-05-08T00:42:45.951Z,101592.83
2023-05-08T00:45:15.081Z,101593.35
2023-05-08T00:47:43.925Z,101588.84
2023-05-08T00:50:13.213Z,101579.27
2023-05-08T00:52:42.230Z,101582.91
2023-05-08T00:55:11.026Z,101583.65
2023-05-08T00:57:39.903Z,101578.13
2023-05-08T01:00:10.343Z,101578.73
2023-05-08T01:02:40.920Z,101579.21
2023-05-08T01:05:09.971Z,101581.30
2023-05-08T01:07:39.258Z,101576.20
2023-05-08T01:10:08.788Z,101572.79
2023-05-08T01:13:09.239Z,101569.54
2023-05-08T01:16:00.591Z,101566.98
2023-05-08T01:18:46.276Z,101570.10
2023-05-08T01:21:50.556Z,101574.00
2023-05-08T01:25:05.953Z,101573.79
2023-05-08T01:27:59.465Z,101573.48
2023-05-08T01:30:34.135Z,101576.59
2023-05-08T01:33:14.731Z,101576.66
2023-05-08T01:35:53.399Z,101580.16
2023-05-08T01:38:43.349Z,101576.88
2023-05-08T01:41:25.583Z,101578.52
2023-05-08T01:43:59.056Z,101579.65
2023-05-08T01:46:32.878Z,101581.52
2023-05-08T01:49:18.242Z,101580.71
2023-05-08T01:51:53.263Z,101576.30
2023-05-08T01:54:27.077Z,101574.34
2023-05-08T01:56:59.760Z,101569.57
2023-05-08T01:59:31.395Z,101570.06
2023-05-08T02:02:03.176Z,101566.17
2023-05-08T02:04:33.787Z,101565.54
2023-05-08T02:07:03.703Z,101570.13
2023-05-08T02:09:33.117Z,101573.48
2023-05-08T02:12:03.492Z,101575.73
2023-05-08T02:14:33.255Z,101562.89
2023-05-08T02:17:03.717Z,101562.87
2023-05-08T02:19:35.166Z,101563.80
2023-05-08T02:22:05.876Z,101562.96
2023-05-08T02:24:36.159Z,101559.77
2023-05-08T02:27:06.909Z,101561.19
2023-05-08T02:29:37.653Z,101559.26
2023-05-08T02:32:09.272Z,101560.75
2023-05-08T02:34:42.879Z,101562.29
2023-05-08T02:37:19.997Z,101564.91
2023-05-08T02:39:49.683Z,101568.92
2023-05-08T02:42:18.508Z,101576.08
2023-05-08T02:44:47.433Z,101580.02
2023-05-08T02:47:26.088Z,101587.97
2023-05-08T02:50:27.407Z,101587.90
2023-05-08T02:53:05.570Z,101589.90
2023-05-08T02:55:54.016Z,101591.41
2023-05-08T02:58:37.774Z,101589.09
2023-05-08T03:01:17.253Z,101587.67
2023-05-08T03:03:54.731Z,101588.34
2023-05-08T03:06:26.606Z,101588.75
2023-05-08T03:09:00.569Z,101589.84
2023-05-08T03:11:39.282Z,101594.24
2023-05-08T03:14:14.585Z,101596.94
2023-05-08T03:16:46.686Z,101599.67
2023-05-08T03:19:28.476Z,101600.59
2023-05-08T03:21:59.290Z,101600.45
2023-05-08T03:24:31.705Z,101598.05
2023-05-08T03:27:02.424Z,101601.38
2023-05-08T03:29:33.718Z,101602.09
2023-05-08T03:32:03.859Z,101600.05
2023-05-08T03:34:34.355Z,101605.87
2023-05-08T03:37:03.487Z,101604.91
2023-05-08T03:39:32.272Z,101602.70
2023-05-08T03:42:01.101Z,101602.40
2023-05-08T03:44:31.542Z,101600.42
2023-05-08T03:47:01.145Z,101609.86
2023-05-08T03:49:31.435Z,101615.27
2023-05-08T03:52:00.493Z,101616.67
2023-05-08T03:54:30.443Z,101622.90
2023-05-08T03:56:59.645Z,101619.19
2023-05-08T04:00:15.708Z,101624.13
2023-05-08T04:03:15.812Z,101627.14
2023-05-08T04:05:53.743Z,101633.38
2023-05-08T04:08:39.453Z,101640.22
2023-05-08T04:11:51.771Z,101639.13
2023-05-08T04:14:25.099Z,101640.63
2023-05-08T04:17:00.690Z,101641.80
2023-05-08T04:19:36.460Z,101647.91
2023-05-08T04:22:10.716Z,101649.60
2023-05-08T04:24:48.376Z,101651.76
2023-05-08T04:27:18.540Z,101648.71
2023-05-08T04:29:47.673Z,101651.61
2023-05-08T04:32:16.963Z,101655.23
2023-05-08T04:34:46.087Z,101657.89
2023-05-08T04:37:29.362Z,101660.05
2023-05-08T04:40:00.156Z,101665.23
2023-05-08T04:42:29.026Z,101663.38
2023-05-08T04:44:59.353Z,101665.55
2023-05-08T04:47:28.325Z,101664.79
2023-05-08T04:49:57.713Z,101664.05
2023-05-08T04:52:27.249Z,101671.25
2023-05-08T04:54:55.965Z,101669.40
2023-05-08T04:57:24.797Z,101662.89
2023-05-08T04:59:53.719Z,101669.40
2023-05-08T05:02:22.404Z,101671.66
2023-05-08T05:04:54.038Z,101671.86
2023-05-08T05:07:23.176Z,101678.90
2023-05-08T05:09:51.871Z,101679.31
2023-05-08T05:12:20.866Z,101684.08
2023-05-08T05:14:49.995Z,101687.95
2023-05-08T05:17:19.074Z,101688.21
2023-05-08T05:19:49.542Z,101685.43
2023-05-08T05:22:19.198Z,101679.33
2023-05-08T05:24:48.043Z,101684.92
2023-05-08T05:27:18.278Z,101688.75
2023-05-08T05:29:48.276Z,101691.07
2023-05-08T05:32:17.305Z,101700.04
2023-05-08T05:34:46.243Z,101699.50
2023-05-08T05:37:14.971Z,101702.58
2023-05-08T05:39:43.697Z,101705.95
2023-05-08T05:42:12.825Z,101707.30
2023-05-08T05:44:41.800Z,101705.61
2023-05-08T05:47:11.655Z,101710.49
2023-05-08T05:49:43.288Z,101709.77
2023-05-08T05:52:12.843Z,101714.25
2023-05-08T05:54:42.798Z,101715.46
2023-05-08T05:57:13.310Z,101715.38
2023-05-08T05:59:42.188Z,101713.08
2023-05-08T06:02:14.641Z,101715.91
2023-05-08T06:04:43.392Z,101720.30
2023-05-08T06:07:12.365Z,101723.73
2023-05-08T06:09:41.357Z,101728.65
2023-05-08T06:12:12.235Z,101730.24
2023-05-08T06:14:41.169Z,101733.06
2023-05-08T06:17:10.619Z,101736.19
2023-05-08T06:19:40.008Z,101737.34
2023-05-08T06:22:08.999Z,101739.38
2023-05-08T06:24:37.693Z,101740.63
2023-05-08T06:27:06.447Z,101743.12
2023-05-08T06:29:35.135Z,101739.89
2023-05-08T06:32:03.879Z,101745.34
2023-05-08T06:34:32.789Z,101746.10
2023-05-08T06:37:01.592Z,101748.14
2023-05-08T06:39:30.294Z,101749.87
2023-05-08T06:41:58.961Z,101745.63
2023-05-08T06:44:31.598Z,101746.92
2023-05-08T06:47:00.337Z,101750.84
2023-05-08T06:49:29.157Z,101754.95
2023-05-08T06:51:58.267Z,101755.64
2023-05-08T06:54:27.166Z,101754.77
2023-05-08T06:56:55.907Z,101753.02
2023-05-08T06:59:24.619Z,101755.98
2023-05-08T07:01:53.322Z,101753.23
2023-05-08T07:04:22.181Z,101763.39
2023-05-08T07:06:50.917Z,101766.85
2023-05-08T07:09:19.662Z,101771.15
2023-05-08T07:11:48.456Z,101769.27
2023-05-08T07:14:17.318Z,101776.84
2023-05-08T07:16:46.131Z,101778.52
2023-05-08T07:19:14.959Z,101779.55
2023-05-08T07:21:43.774Z,101780.80
2023-05-08T07:24:12.644Z,101777.54
2023-05-08T07:26:41.408Z,101774.61
2023-05-08T07:29:10.235Z,101773.96
2023-05-08T07:31:41.167Z,101776.48
2023-05-08T07:34:10.125Z,101779.50
2023-05-08T07:36:38.887Z,101782.82
2023-05-08T07:39:07.754Z,101791.09
2023-05-08T07:41:37.401Z,101793.24
2023-05-08T07:44:06.380Z,101792.14
2023-05-08T07:46:35.416Z,101790.84
2023-05-08T07:49:04.353Z,101793.83
2023-05-08T07:51:33.390Z,101793.03
2023-05-08T07:54:02.171Z,101795.38
2023-05-08T07:56:31.498Z,101792.70
2023-05-08T07:59:00.395Z,101793.00
2023-05-08T08:01:29.144Z,101792.31
2023-05-08T08:03:58.026Z,101789.98
2023-05-08T08:06:26.834Z,101787.83
2023-05-08T08:08:55.582Z,101789.25
2023-05-08T08:11:25.384Z,101793.26
2023-05-08T08:13:54.199Z,101797.17
2023-05-08T08:16:23.109Z,101798.27
2023-05-08T08:18:53.202Z,101797.80
2023-05-08T08:21:22.056Z,101802.46
2023-05-08T08:23:50.896Z,101805.29
2023-05-08T08:26:19.613Z,101811.23
2023-05-08T08:28:48.553Z,101811.50
2023-05-08T08:31:20.118Z,101811.61
2023-05-08T08:33:49.073Z,101813.54
2023-05-08T08:36:17.996Z,101809.13
2023-05-08T08:38:46.712Z,101813.89
2023-05-08T08:41:15.980Z,101817.30
2023-05-08T08:43:44.856Z,101812.76
2023-05-08T08:46:15.549Z,101813.30
2023-05-08T08:48:46.649Z,101822.05
2023-05-08T08:51:28.721Z,101824.15
2023-05-08T08:54:12.200Z,101827.42
2023-05-08T08:56:44.497Z,101827.94
2023-05-08T08:59:13.855Z,101830.13
2023-05-08T09:01:45.790Z,101826.64
2023-05-08T09:04:14.694Z,101824.23
2023-05-08T09:06:45.434Z,101822.61
2023-05-08T09:09:14.250Z,101822.77
2023-05-08T09:11:46.379Z,101830.06
2023-05-08T09:14:15.218Z,101833.75
2023-05-08T09:16:44.104Z,101835.52
2023-05-08T09:19:16.148Z,101839.44
2023-05-08T09:21:46.198Z,101840.14
2023-05-08T09:24:15.009Z,101838.42
2023-05-08T09:26:43.656Z,101838.98
2023-05-08T09:29:20.902Z,101838.16
2023-05-08T09:31:52.631Z,101843.61
2023-05-08T09:34:33.425Z,101842.19
2023-05-08T09:37:05.061Z,101844.06
2023-05-08T09:39:34.804Z,101848.02
2023-05-08T09:42:06.136Z,101848.15
2023-05-08T09:44:50.268Z,101855.25
2023-05-08T09:47:24.368Z,101855.31
2023-05-08T09:50:09.841Z,101852.39
2023-05-08T09:52:39.620Z,101850.98
2023-05-08T09:55:11.908Z,101849.77
2023-05-08T09:57:53.922Z,101853.40
2023-05-08T10:00:24.058Z,101850.67
2023-05-08T10:02:59.498Z,101850.11
2023-05-08T10:05:32.388Z,101842.47
2023-05-08T10:08:26.720Z,101850.55
2023-05-08T10:11:13.275Z,101857.33
2023-05-08T10:13:41.946Z,101861.20
2023-05-08T10:16:17.113Z,101862.02
2023-05-08T10:18:51.061Z,101868.35
2023-05-08T10:21:20.584Z,101869.42
2023-05-08T10:23:53.141Z,101872.48
2023-05-08T10:26:31.892Z,101876.58
2023-05-08T10:29:08.095Z,101876.30
2023-05-08T10:31:41.633Z,101874.25
2023-05-08T10:34:17.833Z,101876.92
2023-05-08T10:36:54.209Z,101883.17
2023-05-08T10:39:24.175Z,101884.55
2023-05-08T10:41:53.460Z,101887.05
2023-05-08T10:44:22.466Z,101889.21
2023-05-08T10:47:19.817Z,101887.88
2023-05-08T10:49:56.416Z,101886.98
2023-05-08T10:52:39.495Z,101890.27
2023-05-08T10:55:30.390Z,101890.84
2023-05-08T10:58:07.221Z,101895.77
2023-05-08T11:00:54.253Z,101895.48
2023-05-08T11:03:32.994Z,101896.98
2023-05-08T11:06:02.287Z,101899.98
2023-05-08T11:08:32.791Z,101896.30
2023-05-08T11:11:02.219Z,101902.30
2023-05-08T11:13:58.832Z,101901.11
2023-05-08T11:16:55.150Z,101909.67
2023-05-08T11:19:26.370Z,101907.83
2023-05-08T11:22:16.147Z,101908.98
2023-05-08T11:24:58.252Z,101911.02
2023-05-08T11:27:40.590Z,101909.98
2023-05-08T11:30:33.423Z,101910.63
2023-05-08T11:33:05.434Z,101909.23
2023-05-08T11:36:05.918Z,101911.59
2023-05-08T11:38:38.595Z,101912.83
2023-05-08T11:41:21.818Z,101914.83
2023-05-08T11:44:05.665Z,101915.08
2023-05-08T11:46:55.107Z,101915.71
2023-05-08T11:49:29.431Z,101913.23
2023-05-08T11:51:59.999Z,101911.38
2023-05-08T11:54:32.019Z,101909.34
2023-05-08T11:57:01.907Z,101908.70
2023-05-08T11:59:37.002Z,101911.53
2023-05-08T12:02:09.079Z,101909.44
2023-05-08T12:04:47.158Z,101903.80
2023-05-08T12:07:16.720Z,101896.98
2023-05-08T12:09:46.912Z,101895.80
2023-05-08T12:12:15.685Z,101893.30
2023-05-08T12:14:44.476Z,101890.83
2023-05-08T12:17:17.929Z,101885.79
2023-05-08T12:19:46.691Z,101884.52
2023-05-08T12:22:15.473Z,101882.03
2023-05-08T12:24:44.378Z,101883.96
2023-05-08T12:27:13.438Z,101885.59
2023-05-08T12:29:46.568Z,101880.48
2023-05-08T12:32:15.496Z,101880.36
2023-05-08T12:34:44.418Z,101881.73
2023-05-08T12:37:23.928Z,101881.41
2023-05-08T12:39:52.632Z,101881.57
2023-05-08T12:42:21.575Z,101880.67
2023-05-08T12:44:53.873Z,101883.27
2023-05-08T12:47:22.689Z,101885.59
2023-05-08T12:49:51.349Z,101887.35
2023-05-08T12:52:19.991Z,101891.65
2023-05-08T12:54:49.581Z,101891.45
2023-05-08T12:57:19.971Z,101890.96
2023-05-08T12:59:49.143Z,101889.91
2023-05-08T13:02:24.125Z,101887.85
2023-05-08T13:04:56.559Z,101888.27
2023-05-08T13:07:31.670Z,101886.48
2023-05-08T13:10:05.199Z,101886.59
2023-05-08T13:12:34.532Z,101890.39
2023-05-08T13:15:05.059Z,101888.94
2023-05-08T13:17:33.945Z,101886.03
2023-05-08T13:20:06.127Z,101882.13
2023-05-08T13:22:35.189Z,101879.73
2023-05-08T13:25:04.178Z,101878.60
2023-05-08T13:27:32.914Z,101879.84
2023-05-08T13:30:01.713Z,101885.87
2023-05-08T13:32:30.628Z,101894.20
2023-05-08T13:35:00.955Z,101893.98
2023-05-08T13:37:30.961Z,101895.55
2023-05-08T13:39:59.737Z,101896.20
2023-05-08T13:42:28.483Z,101902.27
2023-05-08T13:44:57.335Z,101898.54
2023-05-08T13:47:26.057Z,101896.45
2023-05-08T13:49:54.773Z,101896.14
2023-05-08T13:52:24.308Z,101898.77
2023-05-08T13:54:53.115Z,101902.95
2023-05-08T13:57:22.793Z,101900.45
2023-05-08T13:59:51.575Z,101899.54
2023-05-08T14:02:20.655Z,101901.13
2023-05-08T14:04:49.482Z,101904.94
2023-05-08T14:07:18.777Z,101905.45
2023-05-08T14:09:47.700Z,101906.64
2023-05-08T14:12:16.520Z,101903.54
2023-05-08T14:14:45.344Z,101907.13
2023-05-08T14:17:14.447Z,101905.98
2023-05-08T14:19:43.612Z,101907.01
2023-05-08T14:22:12.594Z,101903.75
2023-05-08T14:24:42.425Z,101903.15
2023-05-08T14:27:11.630Z,101901.58
2023-05-08T14:29:41.604Z,101905.05
2023-05-08T14:32:11.377Z,101907.55
2023-05-08T14:34:40.437Z,101906.55
2023-05-08T14:37:09.300Z,101912.04
2023-05-08T14:39:37.964Z,101913.32
2023-05-08T14:42:22.174Z,101916.42
2023-05-08T14:44:52.306Z,101916.48
2023-05-08T14:47:21.206Z,101919.80
2023-05-08T14:49:49.932Z,101918.20
2023-05-08T14:52:18.703Z,101919.92
2023-05-08T14:57:41.584Z,101929.20
2023-05-08T15:00:11.316Z,101929.91
2023-05-08T15:02:40.276Z,101931.18
2023-05-08T15:05:16.996Z,101937.54
2023-05-08T15:07:50.288Z,101938.55
2023-05-08T15:10:19.141Z,101940.27
2023-05-08T15:12:48.203Z,101941.94
2023-05-08T15:15:17.202Z,101942.84
2023-05-08T15:17:46.094Z,101946.88
2023-05-08T15:20:14.957Z,101949.73
2023-05-08T15:22:43.659Z,101950.94
2023-05-08T15:25:12.993Z,101948.41
2023-05-08T15:27:42.097Z,101948.34
2023-05-08T15:30:11.425Z,101948.23
2023-05-08T15:32:40.453Z,101949.60
2023-05-08T15:35:09.416Z,101950.39
2023-05-08T15:37:39.183Z,101950.70
2023-05-08T15:40:08.889Z,101950.59
2023-05-08T15:42:37.664Z,101945.96
2023-05-08T15:45:06.981Z,101946.14
2023-05-08T15:47:35.788Z,101945.85
2023-05-08T15:50:04.847Z,101949.30
2023-05-08T15:52:33.656Z,101951.52
2023-05-08T15:55:04.566Z,101947.70
2023-05-08T15:57:33.374Z,101955.96
2023-05-08T16:00:03.111Z,101955.02
2023-05-08T16:02:33.783Z,101957.94
2023-05-08T16:05:02.690Z,101960.61
2023-05-08T16:07:31.453Z,101960.41
2023-05-08T16:10:00.204Z,101958.27
2023-05-08T16:12:29.014Z,101958.67
2023-05-08T16:14:57.705Z,101963.52
2023-05-08T16:17:26.366Z,101963.66
2023-05-08T16:19:55.674Z,101969.80
2023-05-08T16:22:24.918Z,101970.64
2023-05-08T16:24:54.310Z,101979.00
2023-05-08T16:27:23.105Z,101980.92
2023-05-08T16:29:52.222Z,101986.16
2023-05-08T16:32:21.391Z,101989.40
2023-05-08T16:34:50.140Z,101991.05
2023-05-08T16:37:18.839Z,101991.54
2023-05-08T16:39:47.503Z,101994.09
2023-05-08T16:42:16.183Z,101992.64
2023-05-08T16:44:45.379Z,101994.33
2023-05-08T16:47:14.113Z,101995.75
2023-05-08T16:49:42.851Z,102000.36
2023-05-08T16:52:11.726Z,102000.13
2023-05-08T16:54:40.466Z,102006.73
2023-05-08T16:57:09.152Z,102008.65
2023-05-08T16:59:37.862Z,102004.53
2023-05-08T17:02:07.203Z,102006.67
2023-05-08T17:04:36.614Z,102006.66
2023-05-08T17:07:06.807Z,102014.52
2023-05-08T17:09:36.970Z,102013.45
2023-05-08T17:12:06.314Z,102013.63
2023-05-08T17:14:35.590Z,102020.16
2023-05-08T17:17:04.345Z,102024.44
2023-05-08T17:19:33.157Z,102026.92
2023-05-08T17:22:02.690Z,102029.55
2023-05-08T17:24:32.735Z,102032.13
2023-05-08T17:27:01.556Z,102035.11
2023-05-08T17:29:30.240Z,102036.33
2023-05-08T17:31:58.916Z,102036.39
2023-05-08T17:34:27.604Z,102033.70
2023-05-08T17:36:56.497Z,102037.31
2023-05-08T17:39:25.330Z,102041.85
2023-05-08T17:41:54.989Z,102045.23
2023-05-08T17:44:23.771Z,102049.17
2023-05-08T17:46:52.592Z,102054.37
2023-05-08T17:49:21.402Z,102056.68
2023-05-08T17:51:50.296Z,102060.23
2023-05-08T17:54:19.655Z,102063.45
2023-05-08T17:56:48.801Z,102070.23
2023-05-08T17:59:17.424Z,102072.09
2023-05-08T18:01:46.330Z,102070.38
2023-05-08T18:04:15.091Z,102072.54
2023-05-08T18:06:43.951Z,102077.27
2023-05-08T18:09:12.601Z,102083.93
2023-05-08T18:11:41.456Z,102081.26
2023-05-08T18:14:10.300Z,102083.48
2023-05-08T18:16:39.060Z,102084.88
2023-05-08T18:19:07.851Z,102083.87
2023-05-08T18:21:36.588Z,102082.90
2023-05-08T18:24:05.994Z,102081.42
2023-05-08T18:26:34.680Z,102085.30
2023-05-08T18:29:03.399Z,102087.85
2023-05-08T18:31:32.482Z,102090.32
2023-05-08T18:34:02.272Z,102092.61
2023-05-08T18:36:32.019Z,102097.59
2023-05-08T18:39:00.709Z,102097.16
2023-05-08T18:41:29.392Z,102098.52
2023-05-08T18:44:01.618Z,102097.33
2023-05-08T18:46:30.442Z,102097.98
2023-05-08T18:48:59.214Z,102100.38
2023-05-08T18:51:27.956Z,102101.02
2023-05-08T18:53:57.350Z,102105.52
2023-05-08T18:56:26.384Z,102107.99
2023-05-08T18:58:55.145Z,102101.41
2023-05-08T19:01:24.174Z,102107.27
2023-05-08T19:03:54.182Z,102107.75
2023-05-08T19:06:22.982Z,102105.96
2023-05-08T19:08:52.345Z,102108.17
2023-05-08T19:11:22.031Z,102106.26
2023-05-08T19:13:51.981Z,102106.33
2023-05-08T19:16:20.725Z,102105.33
2023-05-08T19:18:49.486Z,102105.94
2023-05-08T19:21:18.162Z,102105.58
2023-05-08T19:23:47.006Z,102100.29
2023-05-08T19:26:15.817Z,102095.59
2023-05-08T19:28:44.422Z,102106.65
2023-05-08T19:31:13.143Z,102104.26
2023-05-08T19:33:42.160Z,102101.58
2023-05-08T19:36:10.911Z,102101.38
2023-05-08T19:38:40.334Z,102106.23
2023-05-08T19:41:09.086Z,102104.33
2023-05-08T19:43:37.779Z,102099.45
2023-05-08T19:46:06.497Z,102099.23
2023-05-08T19:48:35.262Z,102097.05
2023-05-08T19:51:07.911Z,102094.16
2023-05-08T19:53:36.627Z,102094.34
2023-05-08T19:56:05.650Z,102091.41
2023-05-08T19:58:34.580Z,102090.55
2023-05-08T20:01:03.419Z,102089.75
